Time;durP1;ratioP1;P1;durP2;ratioP2;P2;SDS_P1;SDS_P2;PMS_P1;PMS_P2;Temp;Humidity;BMP_temperature;BMP_pressure;BME280_temperature;BME280_humidity;BME280_pressure;Samples;Min_cycle;Max_cycle;Signal;HPM_P1;HPM_P2
2022/03/26 00:00:30;;;;;;;102.57;53.70;;;;;;;;;;4807984;29;20106;-75
2022/03/26 00:02:56;;;;;;;119.18;61.40;;;;;;;;;;4822593;29;20046;-74
2022/03/26 00:05:23;;;;;;;124.50;65.07;;;;;;;;;;4807804;29;20060;-75
2022/03/26 00:07:49;;;;;;;123.13;64.32;;;;;;;;;;4807242;29;20081;-74
2022/03/26 00:10:16;;;;;;;148.63;72.40;;;;;;;;;;4823352;29;20050;-74
2022/03/26 00:12:42;;;;;;;152.30;79.25;;;;;;;;;;4808239;29;20087;-75
2022/03/26 00:15:09;;;;;;;159.77;78.90;;;;;;;;;;4822447;29;20060;-74
2022/03/26 00:17:35;;;;;;;161.10;79.72;;;;;;;;;;4823019;29;20056;-75
2022/03/26 00:20:02;;;;;;;173.50;82.40;;;;;;;;;;4807096;29;20557;-74
2022/03/26 00:22:28;;;;;;;161.57;79.13;;;;;;;;;;4822570;29;20053;-75
2022/03/26 00:24:54;;;;;;;156.43;78.10;;;;;;;;;;4822263;29;20098;-74
2022/03/26 00:27:20;;;;;;;165.02;82.65;;;;;;;;;;4822554;29;20113;-75
2022/03/26 00:29:46;;;;;;;154.88;77.43;;;;;;;;;;4822976;29;20050;-75
2022/03/26 00:32:12;;;;;;;175.07;84.03;;;;;;;;;;4807467;29;20058;-75
2022/03/26 00:34:39;;;;;;;167.88;81.57;;;;;;;;;;4807809;29;20474;-75
2022/03/26 00:37:05;;;;;;;169.13;82.10;;;;;;;;;;4807793;29;20110;-75
2022/03/26 00:39:32;;;;;;;157.57;78.68;;;;;;;;;;4808378;29;20148;-75
2022/03/26 00:41:58;;;;;;;166.88;79.18;;;;;;;;;;4827144;29;20517;-75
2022/03/26 00:44:24;;;;;;;153.25;77.20;;;;;;;;;;4827048;29;20057;-75
2022/03/26 00:46:51;;;;;;;164.75;80.07;;;;;;;;;;4840475;29;20060;-75
2022/03/26 00:49:18;;;;;;;156.70;78.45;;;;;;;;;;4826717;29;20140;-75
2022/03/26 00:51:44;;;;;;;155.60;77.03;;;;;;;;;;4842047;29;20065;-76
2022/03/26 00:54:11;;;;;;;141.93;75.28;;;;;;;;;;4826795;29;20049;-77
2022/03/26 00:56:41;;;;;;;142.98;72.90;;;;;;;;;;4825756;29;20050;-76
2022/03/26 00:59:08;;;;;;;144.98;72.93;;;;;;;;;;4824747;29;20053;-75
2022/03/26 01:01:34;;;;;;;138.38;69.40;;;;;;;;;;4841077;29;20057;-75
2022/03/26 01:04:01;;;;;;;140.70;73.03;;;;;;;;;;4840292;29;20050;-77
2022/03/26 01:06:27;;;;;;;148.43;73.22;;;;;;;;;;4825481;29;20530;-77
2022/03/26 01:08:53;;;;;;;139.38;70.70;;;;;;;;;;4840236;29;20461;-77
2022/03/26 01:11:19;;;;;;;139.20;69.78;;;;;;;;;;4840764;29;20413;-76
2022/03/26 01:13:46;;;;;;;135.95;68.47;;;;;;;;;;4826503;29;20050;-75
2022/03/26 01:16:15;;;;;;;134.65;66.55;;;;;;;;;;4839122;29;20089;-75
2022/03/26 01:18:42;;;;;;;144.52;71.70;;;;;;;;;;4826166;29;20045;-75
2022/03/26 01:21:08;;;;;;;144.52;72.40;;;;;;;;;;4824869;29;20382;-76
2022/03/26 01:23:34;;;;;;;141.40;70.20;;;;;;;;;;4841127;29;20113;-77
2022/03/26 01:26:02;;;;;;;141.25;69.57;;;;;;;;;;4840390;29;20061;-77
2022/03/26 01:28:30;;;;;;;141.00;70.00;;;;;;;;;;4826979;29;20223;-77
2022/03/26 01:30:56;;;;;;;130.85;66.55;;;;;;;;;;4826113;29;20060;-77
2022/03/26 01:33:22;;;;;;;136.18;70.50;;;;;;;;;;4826388;29;20053;-77
2022/03/26 01:35:48;;;;;;;143.38;72.28;;;;;;;;;;4841791;29;20057;-79
2022/03/26 01:38:15;;;;;;;133.38;68.65;;;;;;;;;;4826118;29;20223;-76
2022/03/26 01:40:41;;;;;;;133.85;67.85;;;;;;;;;;4826256;29;20061;-77
2022/03/26 01:43:07;;;;;;;143.77;71.65;;;;;;;;;;4826180;29;20105;-76
2022/03/26 01:45:33;;;;;;;137.73;70.63;;;;;;;;;;4826794;29;20057;-76
2022/03/26 01:47:59;;;;;;;140.30;70.82;;;;;;;;;;4829769;29;20049;-76
2022/03/26 01:50:26;;;;;;;154.20;74.50;;;;;;;;;;4845149;29;20060;-77
2022/03/26 01:52:52;;;;;;;149.90;73.18;;;;;;;;;;4829801;29;20056;-77
2022/03/26 01:55:18;;;;;;;151.68;74.68;;;;;;;;;;4830209;29;20060;-77
2022/03/26 01:57:45;;;;;;;159.68;74.93;;;;;;;;;;4845385;29;20081;-77
2022/03/26 02:00:12;;;;;;;167.15;78.07;;;;;;;;;;4845230;29;20057;-77
2022/03/26 02:02:43;;;;;;;168.70;78.80;;;;;;;;;;4845343;29;20081;-77
2022/03/26 02:05:09;;;;;;;174.98;80.60;;;;;;;;;;4844916;29;20049;-77
2022/03/26 02:07:37;;;;;;;155.52;76.60;;;;;;;;;;4844813;29;20061;-77
2022/03/26 02:10:03;;;;;;;158.98;76.35;;;;;;;;;;4844900;29;20136;-76
2022/03/26 02:12:30;;;;;;;183.00;82.97;;;;;;;;;;4845542;29;20050;-77
2022/03/26 02:14:57;;;;;;;168.48;80.00;;;;;;;;;;4844962;29;20129;-76
2022/03/26 02:17:23;;;;;;;178.93;84.70;;;;;;;;;;4844210;29;20406;-77
2022/03/26 02:19:51;;;;;;;182.50;84.45;;;;;;;;;;4845522;29;20052;-77
2022/03/26 02:22:17;;;;;;;202.38;88.95;;;;;;;;;;4844715;29;20137;-77
2022/03/26 02:24:43;;;;;;;192.45;85.50;;;;;;;;;;4829322;29;20546;-77
2022/03/26 02:27:10;;;;;;;193.05;88.38;;;;;;;;;;4844921;29;20049;-77
2022/03/26 02:29:36;;;;;;;189.65;86.20;;;;;;;;;;4829480;29;20045;-76
2022/03/26 02:32:02;;;;;;;181.15;86.20;;;;;;;;;;4828600;29;20140;-77
2022/03/26 02:34:28;;;;;;;196.48;88.10;;;;;;;;;;4829806;29;20109;-77
2022/03/26 02:36:54;;;;;;;193.43;89.28;;;;;;;;;;4827980;29;20061;-77
2022/03/26 02:39:21;;;;;;;196.10;91.07;;;;;;;;;;4842979;29;20136;-77
2022/03/26 02:41:47;;;;;;;181.43;84.88;;;;;;;;;;4844701;29;20590;-77
2022/03/26 02:44:13;;;;;;;191.38;88.60;;;;;;;;;;4844467;29;20049;-77
2022/03/26 02:46:39;;;;;;;181.40;85.57;;;;;;;;;;4845002;29;20053;-77
2022/03/26 02:49:05;;;;;;;177.70;83.72;;;;;;;;;;4829367;29;20053;-76
2022/03/26 02:51:31;;;;;;;187.15;85.78;;;;;;;;;;4844716;29;20272;-77
2022/03/26 02:53:57;;;;;;;185.70;83.32;;;;;;;;;;4844341;29;20053;-77
2022/03/26 02:56:24;;;;;;;179.93;85.75;;;;;;;;;;4829289;29;20184;-76
2022/03/26 02:58:50;;;;;;;176.50;84.97;;;;;;;;;;4842913;29;20054;-76
2022/03/26 03:01:16;;;;;;;179.93;83.47;;;;;;;;;;4843748;29;20490;-77
2022/03/26 03:03:42;;;;;;;184.32;85.18;;;;;;;;;;4844184;29;20371;-77
2022/03/26 03:06:09;;;;;;;191.13;86.95;;;;;;;;;;4828967;29;20056;-77
2022/03/26 03:08:35;;;;;;;203.43;87.72;;;;;;;;;;4843955;29;20135;-76
2022/03/26 03:11:01;;;;;;;201.95;88.43;;;;;;;;;;4843863;29;20049;-77
2022/03/26 03:13:27;;;;;;;194.48;87.57;;;;;;;;;;4828701;29;20057;-77
2022/03/26 03:15:53;;;;;;;199.18;87.72;;;;;;;;;;4829104;29;20068;-76
2022/03/26 03:18:19;;;;;;;199.18;88.30;;;;;;;;;;4843234;29;20054;-77
2022/03/26 03:20:45;;;;;;;194.52;88.50;;;;;;;;;;4843995;29;20133;-77
2022/03/26 03:23:13;;;;;;;196.57;88.18;;;;;;;;;;4828291;29;20057;-77
2022/03/26 03:25:39;;;;;;;198.10;87.35;;;;;;;;;;4828374;29;20144;-77
2022/03/26 03:28:06;;;;;;;200.75;86.68;;;;;;;;;;4828310;29;20136;-77
2022/03/26 03:30:32;;;;;;;184.43;80.45;;;;;;;;;;4843999;29;20181;-76
2022/03/26 03:32:58;;;;;;;198.02;84.75;;;;;;;;;;4843270;29;20053;-77
2022/03/26 03:35:24;;;;;;;216.23;87.32;;;;;;;;;;4828621;29;20068;-76
2022/03/26 03:37:50;;;;;;;188.68;85.45;;;;;;;;;;4828652;29;20505;-77
2022/03/26 03:40:17;;;;;;;199.82;84.28;;;;;;;;;;4827236;29;20365;-77
2022/03/26 03:42:44;;;;;;;208.23;88.70;;;;;;;;;;4828542;29;20493;-76
2022/03/26 03:45:10;;;;;;;181.90;80.53;;;;;;;;;;4827480;29;20165;-77
2022/03/26 03:47:39;;;;;;;183.55;84.05;;;;;;;;;;4843651;29;20451;-76
2022/03/26 03:50:06;;;;;;;179.82;81.80;;;;;;;;;;4842717;29;20049;-77
2022/03/26 03:52:32;;;;;;;180.13;81.88;;;;;;;;;;4843223;29;20045;-77
2022/03/26 03:54:58;;;;;;;190.13;85.60;;;;;;;;;;4827572;29;20054;-77
2022/03/26 03:57:24;;;;;;;187.30;82.32;;;;;;;;;;4828027;29;20068;-77
2022/03/26 03:59:50;;;;;;;192.43;82.78;;;;;;;;;;4843221;29;20057;-77
2022/03/26 04:02:16;;;;;;;206.02;89.78;;;;;;;;;;4827958;29;20049;-76
2022/03/26 04:04:43;;;;;;;211.35;89.75;;;;;;;;;;4843143;29;20053;-77
2022/03/26 04:07:09;;;;;;;213.48;88.43;;;;;;;;;;4827558;29;20462;-77
2022/03/26 04:09:36;;;;;;;212.27;93.40;;;;;;;;;;4842531;29;20076;-77
2022/03/26 04:12:02;;;;;;;227.77;96.82;;;;;;;;;;4842101;29;20455;-77
2022/03/26 04:14:29;;;;;;;218.75;92.70;;;;;;;;;;4843246;29;20046;-76
2022/03/26 04:16:55;;;;;;;227.23;96.70;;;;;;;;;;4842822;29;20057;-76
2022/03/26 04:19:21;;;;;;;234.05;100.55;;;;;;;;;;4842406;29;20049;-77
2022/03/26 04:21:47;;;;;;;233.75;99.25;;;;;;;;;;4842979;29;20049;-77
2022/03/26 04:24:14;;;;;;;252.48;102.15;;;;;;;;;;4826611;29;20563;-77
2022/03/26 04:26:40;;;;;;;280.63;105.28;;;;;;;;;;4827913;29;20053;-77
2022/03/26 04:29:07;;;;;;;255.48;101.18;;;;;;;;;;4827161;29;20049;-77
2022/03/26 04:31:33;;;;;;;252.50;99.47;;;;;;;;;;4842708;29;20050;-77
2022/03/26 04:34:01;;;;;;;257.88;103.50;;;;;;;;;;4842582;29;20193;-77
2022/03/26 04:36:31;;;;;;;265.88;105.03;;;;;;;;;;4842004;29;20409;-78
2022/03/26 04:38:58;;;;;;;276.73;101.88;;;;;;;;;;4842347;29;20189;-77
2022/03/26 04:41:25;;;;;;;270.02;102.38;;;;;;;;;;4841619;29;20061;-77
2022/03/26 04:43:51;;;;;;;236.95;96.25;;;;;;;;;;4827684;29;20478;-77
2022/03/26 04:46:17;;;;;;;230.90;93.80;;;;;;;;;;4827049;29;20058;-77
2022/03/26 04:48:45;;;;;;;237.20;95.65;;;;;;;;;;4827469;29;20056;-77
2022/03/26 04:51:12;;;;;;;226.27;94.80;;;;;;;;;;4842183;29;20060;-77
2022/03/26 04:53:38;;;;;;;222.50;95.22;;;;;;;;;;4842361;29;20050;-77
2022/03/26 04:56:04;;;;;;;230.40;95.20;;;;;;;;;;4826818;29;20096;-77
2022/03/26 04:58:30;;;;;;;211.13;91.53;;;;;;;;;;4842324;29;20113;-77
2022/03/26 05:00:56;;;;;;;216.15;90.63;;;;;;;;;;4842433;29;20136;-76
2022/03/26 05:03:22;;;;;;;211.90;92.47;;;;;;;;;;4827012;29;20045;-77
2022/03/26 05:05:48;;;;;;;229.45;91.30;;;;;;;;;;4842726;29;20140;-77
2022/03/26 05:08:16;;;;;;;222.70;94.60;;;;;;;;;;4826462;29;20049;-77
2022/03/26 05:10:42;;;;;;;236.52;98.78;;;;;;;;;;4841662;29;20545;-77
2022/03/26 05:13:08;;;;;;;215.93;94.22;;;;;;;;;;4826472;29;20055;-77
2022/03/26 05:15:34;;;;;;;226.90;95.18;;;;;;;;;;4827056;29;20088;-77
2022/03/26 05:18:00;;;;;;;233.88;99.25;;;;;;;;;;4841821;29;20046;-77
2022/03/26 05:20:27;;;;;;;255.15;98.47;;;;;;;;;;4826228;29;20053;-77
2022/03/26 05:22:53;;;;;;;241.23;97.32;;;;;;;;;;4826739;29;20064;-77
2022/03/26 05:25:19;;;;;;;225.13;94.68;;;;;;;;;;4841327;29;20106;-77
2022/03/26 05:27:49;;;;;;;241.68;97.28;;;;;;;;;;4841407;29;20461;-76
2022/03/26 05:30:16;;;;;;;243.18;96.75;;;;;;;;;;4841367;29;20054;-76
2022/03/26 05:32:42;;;;;;;215.40;91.47;;;;;;;;;;4841836;29;20401;-76
2022/03/26 05:35:13;;;;;;;225.15;95.03;;;;;;;;;;4841250;29;20045;-77
2022/03/26 05:37:40;;;;;;;220.10;94.22;;;;;;;;;;4841747;29;20490;-77
2022/03/26 05:40:07;;;;;;;216.05;91.25;;;;;;;;;;4826434;29;20062;-77
2022/03/26 05:42:35;;;;;;;228.90;92.95;;;;;;;;;;4826490;29;20053;-77
2022/03/26 05:45:02;;;;;;;205.88;87.25;;;;;;;;;;4841152;29;20049;-77
2022/03/26 05:47:28;;;;;;;212.73;90.40;;;;;;;;;;4841589;29;20136;-76
2022/03/26 05:49:54;;;;;;;207.95;87.60;;;;;;;;;;4826276;29;20049;-76
2022/03/26 05:52:20;;;;;;;203.27;89.28;;;;;;;;;;4826019;29;20462;-77
2022/03/26 05:54:46;;;;;;;218.50;90.50;;;;;;;;;;4841609;29;20490;-77
2022/03/26 05:57:13;;;;;;;199.10;88.05;;;;;;;;;;4840592;29;20285;-77
2022/03/26 05:59:39;;;;;;;215.75;91.55;;;;;;;;;;4841354;29;20244;-77
2022/03/26 06:02:05;;;;;;;212.20;91.53;;;;;;;;;;4826550;29;20056;-76
2022/03/26 06:04:31;;;;;;;212.95;91.15;;;;;;;;;;4824912;29;20053;-75
2022/03/26 06:06:59;;;;;;;211.57;91.07;;;;;;;;;;4841279;29;20092;-75
2022/03/26 06:09:25;;;;;;;205.13;91.22;;;;;;;;;;4840955;29;20081;-75
2022/03/26 06:11:51;;;;;;;210.75;91.40;;;;;;;;;;4826321;29;20410;-75
2022/03/26 06:14:18;;;;;;;202.30;90.32;;;;;;;;;;4826090;29;20053;-75
2022/03/26 06:16:45;;;;;;;212.90;91.15;;;;;;;;;;4825316;29;20159;-75
2022/03/26 06:19:11;;;;;;;209.35;94.10;;;;;;;;;;4825234;29;20105;-76
2022/03/26 06:21:37;;;;;;;210.30;95.50;;;;;;;;;;4826284;29;20071;-76
2022/03/26 06:24:05;;;;;;;214.43;95.95;;;;;;;;;;4826340;29;20182;-75
2022/03/26 06:26:31;;;;;;;202.00;96.72;;;;;;;;;;4826097;29;20073;-76
2022/03/26 06:28:57;;;;;;;194.10;94.57;;;;;;;;;;4841439;29;20049;-77
2022/03/26 06:31:23;;;;;;;189.80;93.38;;;;;;;;;;4841511;29;20050;-76
2022/03/26 06:33:50;;;;;;;202.05;93.70;;;;;;;;;;4828801;29;20057;-76
2022/03/26 06:36:16;;;;;;;195.20;96.22;;;;;;;;;;4829016;29;20486;-76
2022/03/26 06:38:44;;;;;;;184.40;92.88;;;;;;;;;;4828700;29;20046;-76
2022/03/26 06:41:10;;;;;;;183.98;91.13;;;;;;;;;;4844433;29;20065;-76
2022/03/26 06:43:39;;;;;;;172.27;89.82;;;;;;;;;;4828717;29;20498;-76
2022/03/26 06:46:05;;;;;;;177.00;89.53;;;;;;;;;;4828674;29;20140;-76
2022/03/26 06:48:32;;;;;;;185.93;89.40;;;;;;;;;;4828478;29;20050;-76
2022/03/26 06:51:00;;;;;;;165.77;86.38;;;;;;;;;;4829099;29;20355;-76
2022/03/26 06:53:27;;;;;;;163.93;87.38;;;;;;;;;;4829124;29;20060;-76
2022/03/26 06:55:53;;;;;;;165.88;87.15;;;;;;;;;;4828583;29;20085;-76
2022/03/26 06:58:19;;;;;;;155.27;82.82;;;;;;;;;;4844042;29;20042;-77
2022/03/26 07:00:45;;;;;;;156.15;85.75;;;;;;;;;;4828916;29;20057;-76
2022/03/26 07:03:11;;;;;;;154.88;87.72;;;;;;;;;;4828797;29;20145;-77
2022/03/26 07:05:37;;;;;;;;;;;;;;;;;;4844851;29;20053;-77
2022/03/26 07:08:03;;;;;;;;;;;;;;;;;;4844928;29;20113;-77
2022/03/26 07:10:29;;;;;;;;;;;;;;;;;;4844392;29;20026;-76
2022/03/26 07:12:55;;;;;;;;;;;;;;;;;;4830277;29;19931;-77
2022/03/26 07:15:21;;;;;;;;;;;;;;;;;;4844347;29;19925;-76
2022/03/26 07:17:47;;;;;;;;;;;;;;;;;;4845118;29;19924;-77
2022/03/26 07:20:14;;;;;;;;;;;;;;;;;;4845021;29;19924;-77
2022/03/26 07:22:40;;;;;;;;;;;;;;;;;;4845544;29;20500;-76
2022/03/26 07:25:06;;;;;;;;;;;;;;;;;;4830053;29;19959;-76
2022/03/26 07:27:32;;;;;;;;;;;;;;;;;;4829864;29;19952;-76
2022/03/26 07:29:58;;;;;;;;;;;;;;;;;;4844964;29;20371;-76
2022/03/26 07:32:25;;;;;;;;;;;;;;;;;;4830114;29;20067;-77
2022/03/26 07:34:51;;;;;;;;;;;;;;;;;;4830417;29;19924;-76
2022/03/26 07:37:17;;;;;;;;;;;;;;;;;;4845310;29;19981;-76
2022/03/26 07:39:43;;;;;;;;;;;;;;;;;;4829881;29;19930;-77
2022/03/26 07:42:09;;;;;;;;;;;;;;;;;;4830483;29;19931;-76
2022/03/26 07:44:35;;;;;;;;;;;;;;;;;;4843971;29;19974;-77
2022/03/26 07:47:01;;;;;;;;;;;;;;;;;;4844133;29;19931;-77
2022/03/26 07:49:27;;;;;;;;;;;;;;;;;;4844651;29;20296;-78
2022/03/26 07:51:53;;;;;;;;;;;;;;;;;;4844962;29;20365;-82
2022/03/26 07:54:19;;;;;;;;;;;;;;;;;;4844700;29;20001;-82
2022/03/26 07:56:45;;;;;;;;;;;;;;;;;;4829342;29;19924;-77
2022/03/26 07:59:11;;;;;;;;;;;;;;;;;;4829197;29;19931;-77
2022/03/26 08:01:37;;;;;;;;;;;;;;;;;;4844212;29;19923;-77
2022/03/26 08:04:03;;;;;;;;;;;;;;;;;;4844747;29;19940;-76
2022/03/26 08:06:29;;;;;;;;;;;;;;;;;;4844772;29;19931;-76
2022/03/26 08:08:55;;;;;;;;;;;;;;;;;;4844225;29;19984;-76
2022/03/26 08:11:21;;;;;;;;;;;;;;;;;;4829276;29;19924;-76
2022/03/26 08:13:47;;;;;;;;;;;;;;;;;;4829946;29;19924;-76
2022/03/26 08:16:13;;;;;;;;;;;;;;;;;;4844795;29;20429;-76
2022/03/26 08:18:39;;;;;;;;;;;;;;;;;;4829026;29;19971;-77
2022/03/26 08:21:05;;;;;;;;;;;;;;;;;;4829693;29;19940;-77
2022/03/26 08:23:31;;;;;;;;;;;;;;;;;;4843710;29;20022;-79
2022/03/26 08:28:42;;;;;;;;;;;;;;;;;;4844611;29;19926;-77
2022/03/26 08:31:10;;;;;;;;;;;;;;;;;;4829433;29;20003;-77
2022/03/26 08:33:36;;;;;;;;;;;;;;;;;;4829473;29;20340;-77
2022/03/26 08:36:02;;;;;;;;;;;;;;;;;;4844460;29;19936;-77
2022/03/26 08:38:28;;;;;;;;;;;;;;;;;;4828713;29;19920;-76
2022/03/26 08:40:55;;;;;;;;;;;;;;;;;;4819738;29;19924;-76
2022/03/26 08:43:21;;;;;;;;;;;;;;;;;;4826280;29;19928;-76
2022/03/26 08:45:47;;;;;;;;;;;;;;;;;;4810860;29;20272;-75
2022/03/26 08:48:15;;;;;;;;;;;;;;;;;;4825981;29;20335;-76
2022/03/26 08:50:41;;;;;;;;;;;;;;;;;;4809909;29;19993;-76
2022/03/26 08:53:07;;;;;;;;;;;;;;;;;;4826053;29;19920;-76
2022/03/26 08:55:33;;;;;;;;;;;;;;;;;;4810346;29;19955;-76
2022/03/26 08:57:59;;;;;;;;;;;;;;;;;;4810688;29;20363;-75
2022/03/26 09:00:26;;;;;;;;;;;;;;;;;;4809177;29;19921;-77
2022/03/26 09:02:52;;;;;;;;;;;;;;;;;;4822161;29;19995;-75
2022/03/26 09:05:18;;;;;;;;;;;;;;;;;;4805993;29;19986;-76
2022/03/26 09:07:44;;;;;;;;;;;;;;;;;;4821295;29;19924;-75
2022/03/26 09:10:10;;;;;;;;;;;;;;;;;;4820476;29;19920;-84
2022/03/26 09:12:36;;;;;;;;;;;;;;;;;;4820194;29;20365;-75
2022/03/26 09:15:02;;;;;;;;;;;;;;;;;;4821200;29;19931;-77
2022/03/26 09:17:28;;;;;;;;;;;;;;;;;;4821690;29;19920;-76
2022/03/26 09:19:54;;;;;;;;;;;;;;;;;;4822030;29;19925;-76
2022/03/26 09:22:20;;;;;;;;;;;;;;;;;;4806352;29;19920;-75
2022/03/26 09:24:46;;;;;;;;;;;;;;;;;;4821137;29;20006;-74
2022/03/26 09:27:12;;;;;;;;;;;;;;;;;;4821208;29;19920;-74
2022/03/26 09:29:38;;;;;;;;;;;;;;;;;;4820074;29;20353;-73
2022/03/26 09:32:04;;;;;;;45.55;33.90;;;;;;;;;;4804546;29;19951;-75
2022/03/26 09:34:30;;;;;;;44.13;33.60;;;;;;;;;;4819208;29;20150;-78
2022/03/26 09:36:56;;;;;;;41.72;32.33;;;;;;;;;;4819944;29;20061;-75
2022/03/26 09:39:22;;;;;;;42.33;31.45;;;;;;;;;;4820729;29;20061;-74
2022/03/26 09:41:50;;;;;;;36.20;26.42;;;;;;;;;;4820480;29;20490;-74
2022/03/26 09:44:16;;;;;;;30.40;24.15;;;;;;;;;;4820773;29;20085;-76
2022/03/26 09:46:43;;;;;;;26.70;21.40;;;;;;;;;;4804330;29;20149;-75
2022/03/26 09:49:11;;;;;;;27.08;20.63;;;;;;;;;;4804493;29;20054;-75
2022/03/26 09:51:38;;;;;;;26.77;20.30;;;;;;;;;;4804570;29;20057;-73
2022/03/26 09:54:04;;;;;;;28.10;20.98;;;;;;;;;;4819764;29;20410;-74
2022/03/26 09:56:31;;;;;;;29.35;20.27;;;;;;;;;;4804384;29;20061;-74
2022/03/26 09:58:57;;;;;;;26.27;19.23;;;;;;;;;;4820311;29;20077;-75
2022/03/26 10:01:25;;;;;;;28.83;19.13;;;;;;;;;;4805563;29;20627;-74
2022/03/26 10:04:11;;;;;;;28.38;21.48;;;;;;;;;;4819891;29;20110;-75
2022/03/26 10:06:38;;;;;;;27.98;19.52;;;;;;;;;;4819997;29;20393;-75
2022/03/26 10:09:04;;;;;;;22.17;16.23;;;;;;;;;;4824572;29;20498;-75
2022/03/26 10:11:34;;;;;;;22.95;15.95;;;;;;;;;;4823100;29;20122;-74
2022/03/26 10:14:00;;;;;;;23.45;16.05;;;;;;;;;;4808724;29;20452;-76
2022/03/26 10:16:27;;;;;;;20.90;14.77;;;;;;;;;;4823973;29;20056;-77
2022/03/26 10:18:53;;;;;;;19.30;14.93;;;;;;;;;;4823850;29;20141;-76
2022/03/26 10:21:20;;;;;;;22.90;14.88;;;;;;;;;;4824014;29;20045;-76
2022/03/26 10:23:47;;;;;;;18.85;13.55;;;;;;;;;;4808720;29;20136;-75
2022/03/26 10:26:13;;;;;;;21.13;13.68;;;;;;;;;;4823694;29;20082;-75
2022/03/26 10:28:40;;;;;;;18.15;13.05;;;;;;;;;;4823459;29;20052;-76
2022/03/26 10:34:15;;;;;;;17.67;13.95;;;;;;;;;;4823363;29;20503;-75
2022/03/26 10:36:45;;;;;;;21.02;13.35;;;;;;;;;;4808414;29;20053;-78
2022/03/26 10:39:18;;;;;;;15.68;10.50;;;;;;;;;;4823612;29;20042;-80
2022/03/26 10:41:44;;;;;;;16.77;10.07;;;;;;;;;;4824438;29;20058;-79
2022/03/26 10:44:15;;;;;;;15.20;9.82;;;;;;;;;;4823660;29;20131;-76
2022/03/26 10:46:42;;;;;;;15.70;9.82;;;;;;;;;;4808108;29;20409;-75
2022/03/26 10:49:08;;;;;;;14.82;9.10;;;;;;;;;;4823897;29;20498;-76
2022/03/26 10:51:40;;;;;;;11.40;8.63;;;;;;;;;;4823339;29;20096;-75
2022/03/26 10:54:10;;;;;;;13.85;8.63;;;;;;;;;;4825174;29;20053;-76
2022/03/26 10:56:37;;;;;;;13.77;9.15;;;;;;;;;;4812346;29;20105;-76
2022/03/26 10:59:04;;;;;;;13.48;8.10;;;;;;;;;;4811950;29;20057;-77
2022/03/26 11:01:30;;;;;;;10.48;7.60;;;;;;;;;;4824389;29;20300;-75
2022/03/26 11:03:57;;;;;;;10.20;7.70;;;;;;;;;;4807646;29;20054;-77
2022/03/26 11:06:27;;;;;;;11.98;7.38;;;;;;;;;;4808418;29;20060;-78
2022/03/26 11:08:59;;;;;;;12.85;7.57;;;;;;;;;;4807901;29;20053;-78
2022/03/26 11:11:27;;;;;;;10.47;6.63;;;;;;;;;;4807364;29;20057;-77
2022/03/26 11:13:55;;;;;;;12.50;7.30;;;;;;;;;;4811580;29;20050;-76
2022/03/26 11:16:24;;;;;;;10.80;7.03;;;;;;;;;;4811770;29;20136;-76
2022/03/26 11:18:57;;;;;;;11.50;7.70;;;;;;;;;;4810007;29;20570;-77
2022/03/26 11:21:38;;;;;;;11.00;8.07;;;;;;;;;;4826876;29;20490;-76
2022/03/26 11:24:27;;;;;;;11.95;7.32;;;;;;;;;;4811273;29;20057;-77
2022/03/26 11:27:12;;;;;;;10.00;7.20;;;;;;;;;;4826566;29;20149;-76
2022/03/26 11:29:45;;;;;;;12.65;8.05;;;;;;;;;;4826796;29;20081;-76
2022/03/26 11:32:24;;;;;;;11.33;7.43;;;;;;;;;;4811986;29;20050;-76
2022/03/26 11:34:57;;;;;;;11.25;7.68;;;;;;;;;;4826599;29;20085;-78
2022/03/26 11:37:24;;;;;;;11.70;7.70;;;;;;;;;;4812001;29;20558;-75
2022/03/26 11:39:51;;;;;;;11.75;7.13;;;;;;;;;;4810786;29;20054;-75
2022/03/26 11:42:25;;;;;;;14.38;7.90;;;;;;;;;;4811508;29;20183;-75
2022/03/26 11:50:46;;;;;;;7.68;5.38;;;;;;;;;;4826746;29;20081;-75
2022/03/26 11:53:14;;;;;;;12.05;6.20;;;;;;;;;;4828122;29;20065;-77
2022/03/26 11:55:50;;;;;;;7.95;4.82;;;;;;;;;;4811685;29;20050;-75
2022/03/26 11:58:22;;;;;;;8.38;5.35;;;;;;;;;;4811920;29;20053;-84
2022/03/26 12:00:54;;;;;;;9.23;5.68;;;;;;;;;;4826780;29;20058;-75
2022/03/26 12:03:24;;;;;;;6.45;4.97;;;;;;;;;;4827041;29;20064;-77
2022/03/26 12:08:40;;;;;;;7.20;4.50;;;;;;;;;;4826464;29;20417;-74
2022/03/26 12:11:06;;;;;;;7.10;3.88;;;;;;;;;;4826623;29;20049;-74
2022/03/26 12:13:34;;;;;;;9.30;4.20;;;;;;;;;;4826958;29;20046;-75
2022/03/26 12:16:01;;;;;;;6.75;4.00;;;;;;;;;;4826168;29;20049;-76
2022/03/26 12:18:37;;;;;;;7.32;4.38;;;;;;;;;;4826521;29;20050;-75
2022/03/26 12:21:08;;;;;;;6.60;4.32;;;;;;;;;;4811791;29;20111;-75
2022/03/26 12:23:34;;;;;;;7.88;4.80;;;;;;;;;;4826805;29;20148;-75
2022/03/26 12:26:08;;;;;;;8.80;4.93;;;;;;;;;;4811197;29;20133;-73
2022/03/26 12:28:38;;;;;;;5.18;3.72;;;;;;;;;;4811437;29;20056;-73
2022/03/26 12:31:08;;;;;;;4.75;3.47;;;;;;;;;;4810596;29;20054;-75
2022/03/26 12:33:39;;;;;;;7.22;4.35;;;;;;;;;;4826147;29;20050;-74
2022/03/26 12:36:06;;;;;;;10.20;5.60;;;;;;;;;;4825929;29;20490;-77
2022/03/26 12:38:32;;;;;;;7.47;5.18;;;;;;;;;;4826137;29;20075;-75
2022/03/26 12:40:59;;;;;;;4.97;3.70;;;;;;;;;;4825341;29;20097;-74
2022/03/26 12:43:26;;;;;;;7.22;3.58;;;;;;;;;;4810961;29;20478;-74
2022/03/26 12:45:53;;;;;;;6.25;3.33;;;;;;;;;;4825885;29;20100;-74
2022/03/26 12:48:23;;;;;;;5.72;3.33;;;;;;;;;;4826183;29;20081;-74
2022/03/26 12:50:49;;;;;;;6.57;4.13;;;;;;;;;;4809252;29;20439;-76
2022/03/26 12:53:16;;;;;;;5.63;3.60;;;;;;;;;;4826091;29;20050;-75
2022/03/26 12:55:43;;;;;;;7.70;4.35;;;;;;;;;;4810419;29;20084;-73
2022/03/26 13:01:03;;;;;;;7.85;3.63;;;;;;;;;;4825452;29;20057;-76
2022/03/26 13:03:29;;;;;;;8.15;3.92;;;;;;;;;;4811044;29;20049;-74
2022/03/26 13:05:56;;;;;;;6.35;4.25;;;;;;;;;;4810473;29;20058;-74
2022/03/26 13:08:22;;;;;;;5.53;4.45;;;;;;;;;;4810809;29;20058;-74
2022/03/26 13:10:48;;;;;;;6.13;3.70;;;;;;;;;;4825454;29;20538;-74
2022/03/26 13:13:14;;;;;;;6.57;4.13;;;;;;;;;;4826031;29;20195;-74
2022/03/26 13:15:40;;;;;;;9.93;4.82;;;;;;;;;;4810274;29;20494;-74
2022/03/26 13:18:07;;;;;;;8.75;5.22;;;;;;;;;;4810259;29;20145;-74
2022/03/26 13:20:40;;;;;;;8.07;5.57;;;;;;;;;;4825748;29;20398;-75
2022/03/26 13:23:08;;;;;;;6.75;5.15;;;;;;;;;;4810312;29;20060;-74
2022/03/26 13:25:38;;;;;;;7.82;5.10;;;;;;;;;;4825577;29;20053;-73
2022/03/26 13:28:14;;;;;;;10.10;5.50;;;;;;;;;;4809859;29;20058;-74
2022/03/26 13:30:41;;;;;;;10.05;5.32;;;;;;;;;;4825285;29;20057;-72
2022/03/26 13:33:08;;;;;;;7.35;4.78;;;;;;;;;;4809568;29;20105;-75
2022/03/26 13:35:34;;;;;;;6.88;4.93;;;;;;;;;;4809353;29;20106;-73
2022/03/26 13:38:11;;;;;;;9.80;5.53;;;;;;;;;;4809171;29;20049;-75
2022/03/26 13:40:37;;;;;;;7.80;3.88;;;;;;;;;;4809855;29;20061;-75
2022/03/26 13:43:04;;;;;;;8.50;4.65;;;;;;;;;;4827438;29;20314;-74
2022/03/26 13:45:31;;;;;;;11.05;8.20;;;;;;;;;;4813848;29;20137;-74
2022/03/26 13:47:57;;;;;;;115.38;17.52;;;;;;;;;;4828113;29;20050;-75
2022/03/26 13:50:23;;;;;;;7.35;5.00;;;;;;;;;;4813923;29;20050;-75
2022/03/26 13:52:51;;;;;;;6.97;3.40;;;;;;;;;;4827852;29;20118;-75
2022/03/26 13:55:28;;;;;;;5.68;3.60;;;;;;;;;;4827490;29;20054;-75
2022/03/26 13:57:55;;;;;;;5.18;2.63;;;;;;;;;;4810448;29;20046;-75
2022/03/26 14:00:22;;;;;;;6.38;3.20;;;;;;;;;;4826945;29;20081;-79
2022/03/26 14:02:49;;;;;;;8.55;3.83;;;;;;;;;;4810582;29;20325;-76
2022/03/26 14:05:25;;;;;;;8.20;3.95;;;;;;;;;;4812209;29;20057;-76
2022/03/26 14:07:51;;;;;;;7.45;3.63;;;;;;;;;;4825165;29;20491;-76
2022/03/26 14:10:17;;;;;;;6.65;3.45;;;;;;;;;;4826601;29;20052;-75
2022/03/26 14:12:44;;;;;;;5.63;3.25;;;;;;;;;;4811617;29;20054;-75
2022/03/26 14:15:10;;;;;;;5.22;3.40;;;;;;;;;;4811093;29;20057;-76
2022/03/26 14:17:36;;;;;;;4.97;3.20;;;;;;;;;;4811539;29;20049;-77
2022/03/26 14:20:03;;;;;;;7.88;3.20;;;;;;;;;;4826166;29;20050;-77
2022/03/26 14:22:29;;;;;;;6.72;3.65;;;;;;;;;;4827379;29;20102;-77
2022/03/26 14:24:55;;;;;;;6.57;3.65;;;;;;;;;;4811655;29;20383;-76
2022/03/26 14:27:21;;;;;;;5.55;3.53;;;;;;;;;;4811893;29;20163;-75
2022/03/26 14:29:47;;;;;;;4.93;3.65;;;;;;;;;;4812270;29;20062;-82
2022/03/26 14:32:13;;;;;;;5.60;3.30;;;;;;;;;;4826972;29;20375;-79
2022/03/26 14:34:39;;;;;;;10.18;4.60;;;;;;;;;;4810934;29;20462;-76
2022/03/26 14:37:06;;;;;;;7.47;3.70;;;;;;;;;;4811665;29;20054;-76
2022/03/26 14:39:32;;;;;;;5.07;3.30;;;;;;;;;;4811479;29;20061;-76
2022/03/26 14:41:58;;;;;;;6.88;3.20;;;;;;;;;;4809287;29;20114;-77
2022/03/26 14:44:24;;;;;;;5.72;2.70;;;;;;;;;;4810888;29;20058;-76
2022/03/26 14:46:50;;;;;;;7.18;3.03;;;;;;;;;;4811111;29;20049;-77
2022/03/26 14:49:16;;;;;;;5.93;2.80;;;;;;;;;;4810894;29;20081;-79
2022/03/26 14:51:42;;;;;;;4.85;2.45;;;;;;;;;;4825808;29;20147;-76
2022/03/26 14:54:08;;;;;;;4.53;2.47;;;;;;;;;;4826139;29;20132;-77